Time;durP1;ratioP1;P1;durP2;ratioP2;P2;SDS_P1;SDS_P2;PMS_P1;PMS_P2;Temp;Humidity;BMP_temperature;BMP_pressure;BME280_temperature;BME280_humidity;BME280_pressure;Samples;Min_cycle;Max_cycle;Signal;HPM_P1;HPM_P2
2022/08/15 00:00:27;;;;;;;6.10;4.00;;;19.60;99.90;;;;;;5056861;28;20064;-63
2022/08/15 00:02:55;;;;;;;4.80;3.97;;;19.60;99.90;;;;;;5055513;28;20792;-64
2022/08/15 00:05:30;;;;;;;7.03;3.85;;;19.60;99.90;;;;;;5055675;28;20063;-62
2022/08/15 00:08:03;;;;;;;7.80;4.38;;;19.60;99.90;;;;;;5056370;28;20037;-64
2022/08/15 00:10:51;;;;;;;6.30;3.88;;;19.60;99.90;;;;;;5055271;28;20080;-64
2022/08/15 00:13:30;;;;;;;10.85;5.65;;;19.60;99.90;;;;;;5055511;28;20048;-64
2022/08/15 00:16:10;;;;;;;8.98;4.03;;;19.60;99.90;;;;;;5055385;28;20037;-64
2022/08/15 00:18:47;;;;;;;10.13;4.37;;;19.50;99.90;;;;;;5056173;28;20592;-63
2022/08/15 00:21:17;;;;;;;8.82;4.15;;;19.50;99.90;;;;;;5055332;28;20043;-64
2022/08/15 00:23:48;;;;;;;6.00;3.72;;;19.50;99.90;;;;;;5055434;28;20082;-63
2022/08/15 00:26:17;;;;;;;5.43;3.33;;;19.50;99.90;;;;;;5055379;28;20083;-64
2022/08/15 00:29:06;;;;;;;5.63;4.07;;;19.50;99.90;;;;;;5056027;28;20071;-64
2022/08/15 00:31:35;;;;;;;8.45;4.20;;;19.50;99.90;;;;;;5054360;28;20044;-65
2022/08/15 00:34:10;;;;;;;5.32;3.65;;;19.50;99.90;;;;;;5053577;28;20581;-63
2022/08/15 00:36:58;;;;;;;6.85;4.20;;;19.50;99.90;;;;;;5055193;28;20694;-64
2022/08/15 00:39:27;;;;;;;6.30;4.05;;;19.50;99.90;;;;;;5045037;28;20115;-65
2022/08/15 00:42:03;;;;;;;6.55;4.43;;;19.50;99.90;;;;;;5034675;28;20066;-63
2022/08/15 00:44:40;;;;;;;14.55;4.78;;;19.50;99.90;;;;;;5035005;28;20432;-64
2022/08/15 00:47:27;;;;;;;19.15;4.28;;;19.40;99.90;;;;;;5035605;28;20676;-63
2022/08/15 00:50:07;;;;;;;13.35;4.18;;;19.40;99.90;;;;;;5035215;28;20046;-65
2022/08/15 00:52:54;;;;;;;18.20;4.57;;;19.40;99.90;;;;;;5033864;28;20091;-65
2022/08/15 00:55:21;;;;;;;9.77;4.90;;;19.30;99.90;;;;;;5033551;28;21033;-63
2022/08/15 00:57:53;;;;;;;27.40;6.85;;;19.20;99.90;;;;;;5035271;28;20051;-62
2022/08/15 01:00:37;;;;;;;11.48;5.63;;;19.00;99.90;;;;;;5033251;28;20053;-62
2022/08/15 01:03:29;;;;;;;15.13;5.45;;;18.70;99.90;;;;;;5034650;28;20037;-61
2022/08/15 01:06:19;;;;;;;11.02;4.70;;;18.40;99.90;;;;;;5032773;28;20053;-59
2022/08/15 01:08:54;;;;;;;8.95;5.00;;;18.10;99.90;;;;;;5035099;28;20056;-59
2022/08/15 01:11:45;;;;;;;11.30;4.90;;;17.80;99.90;;;;;;5049051;28;20048;-60
2022/08/15 01:14:12;;;;;;;14.70;5.22;;;17.60;99.90;;;;;;5052998;28;20063;-59
2022/08/15 01:16:59;;;;;;;9.90;5.73;;;17.50;99.90;;;;;;5054265;28;20135;-59
2022/08/15 01:19:32;;;;;;;10.48;5.13;;;17.30;99.90;;;;;;5053738;28;20049;-59
2022/08/15 01:22:12;;;;;;;12.55;5.13;;;17.20;99.90;;;;;;5034550;28;20048;-59
2022/08/15 01:24:59;;;;;;;12.65;5.82;;;17.20;99.90;;;;;;5033046;28;20060;-59
2022/08/15 01:27:57;;;;;;;13.23;5.72;;;17.10;99.90;;;;;;5032690;28;20047;-59
2022/08/15 01:30:28;;;;;;;7.93;5.13;;;17.00;99.90;;;;;;5033059;28;20053;-59
2022/08/15 01:33:16;;;;;;;8.57;4.95;;;16.90;99.90;;;;;;5033900;28;20114;-60
2022/08/15 01:35:45;;;;;;;8.25;5.20;;;16.90;99.90;;;;;;5032709;28;20466;-59
2022/08/15 01:38:30;;;;;;;8.20;5.03;;;16.80;99.90;;;;;;5032362;28;20114;-58
2022/08/15 01:41:36;;;;;;;9.75;4.20;;;16.70;99.90;;;;;;5036165;28;20044;-57
2022/08/15 01:44:30;;;;;;;7.47;5.20;;;16.70;99.90;;;;;;5032094;28;20068;-58
2022/08/15 01:47:23;;;;;;;8.18;4.93;;;16.60;99.90;;;;;;5032620;28;20051;-57
2022/08/15 01:50:07;;;;;;;12.00;5.90;;;16.60;99.90;;;;;;5032473;28;20151;-57
2022/08/15 01:52:56;;;;;;;6.87;5.30;;;16.60;99.90;;;;;;5033023;28;20071;-58
2022/08/15 01:56:03;;;;;;;7.30;5.05;;;16.50;99.90;;;;;;5035213;28;20041;-58
2022/08/15 01:58:50;;;;;;;9.82;4.93;;;16.50;99.90;;;;;;5052515;28;20051;-59
2022/08/15 02:01:43;;;;;;;7.32;4.43;;;16.40;99.90;;;;;;5051667;28;20443;-57
2022/08/15 02:04:25;;;;;;;10.38;5.65;;;16.40;99.90;;;;;;5046877;28;20048;-58
2022/08/15 02:06:52;;;;;;;10.20;5.65;;;16.40;99.90;;;;;;5052439;28;20068;-58
2022/08/15 02:09:26;;;;;;;6.95;5.35;;;16.30;99.90;;;;;;5052556;28;20072;-58
2022/08/15 02:12:16;;;;;;;5.35;4.80;;;16.30;99.90;;;;;;5051444;28;20877;-58
2022/08/15 02:15:12;;;;;;;6.55;5.30;;;16.30;99.90;;;;;;5051346;28;20712;-58
2022/08/15 02:17:41;;;;;;;8.45;4.93;;;16.30;99.90;;;;;;5053196;28;20040;-59
2022/08/15 02:20:10;;;;;;;6.93;5.50;;;16.30;99.90;;;;;;5051868;28;20120;-58
2022/08/15 02:22:51;;;;;;;6.50;5.05;;;16.30;99.90;;;;;;5051173;28;20041;-59
2022/08/15 02:25:19;;;;;;;14.68;5.68;;;16.20;99.90;;;;;;5051644;28;20044;-59
2022/08/15 02:27:53;;;;;;;8.55;5.72;;;16.20;99.90;;;;;;5052289;28;20047;-59
2022/08/15 02:30:25;;;;;;;6.95;5.20;;;16.10;99.90;;;;;;5053102;28;20049;-60
2022/08/15 02:33:04;;;;;;;6.93;5.45;;;16.10;99.90;;;;;;5053151;28;20044;-59
2022/08/15 02:35:35;;;;;;;8.18;5.25;;;16.10;99.90;;;;;;5050954;28;20639;-60
2022/08/15 02:38:06;;;;;;;7.10;5.80;;;16.10;99.90;;;;;;5052314;28;20072;-59
2022/08/15 02:40:47;;;;;;;7.72;5.53;;;16.10;99.90;;;;;;5031705;28;20736;-59
2022/08/15 02:43:19;;;;;;;4.97;4.35;;;16.10;99.90;;;;;;5030687;28;20045;-60
2022/08/15 02:45:48;;;;;;;6.70;5.05;;;16.10;99.90;;;;;;5031460;28;20553;-60
2022/08/15 02:48:21;;;;;;;7.25;4.60;;;16.10;99.90;;;;;;5033607;28;20974;-60
2022/08/15 02:50:55;;;;;;;10.40;4.90;;;16.10;99.90;;;;;;5030755;28;20048;-60
2022/08/15 02:53:23;;;;;;;5.85;5.15;;;16.10;99.90;;;;;;5031377;28;20070;-60
2022/08/15 02:55:53;;;;;;;8.32;5.68;;;16.10;99.90;;;;;;5034744;28;20123;-60
2022/08/15 02:58:20;;;;;;;7.35;5.55;;;16.10;99.90;;;;;;5053226;28;20049;-60
2022/08/15 03:00:56;;;;;;;15.82;8.13;;;16.00;99.90;;;;;;5051373;28;20055;-60
2022/08/15 03:03:39;;;;;;;8.60;5.40;;;16.00;99.90;;;;;;5049959;28;20091;-60
2022/08/15 03:06:10;;;;;;;8.70;6.30;;;16.00;99.90;;;;;;5051417;28;20059;-59
2022/08/15 03:08:43;;;;;;;7.77;5.37;;;15.90;99.90;;;;;;5050659;28;20044;-59
2022/08/15 03:11:13;;;;;;;6.20;5.13;;;15.90;99.90;;;;;;5050647;28;20036;-59
2022/08/15 03:13:40;;;;;;;7.65;5.60;;;15.90;99.90;;;;;;5051589;28;20045;-60
2022/08/15 03:16:10;;;;;;;8.18;5.50;;;15.90;99.90;;;;;;5051093;28;20040;-59
2022/08/15 03:18:49;;;;;;;6.38;5.30;;;15.90;99.90;;;;;;5051166;28;20075;-59
2022/08/15 03:21:19;;;;;;;8.73;5.57;;;15.90;99.90;;;;;;5047304;28;20055;-59
2022/08/15 03:23:49;;;;;;;9.48;6.88;;;15.90;99.90;;;;;;5050254;28;20037;-58
2022/08/15 03:26:20;;;;;;;6.60;5.22;;;15.80;99.90;;;;;;5051398;28;20456;-58
2022/08/15 03:29:03;;;;;;;7.20;5.70;;;15.80;99.90;;;;;;5051924;28;20148;-60
2022/08/15 03:31:37;;;;;;;6.03;5.15;;;15.80;99.90;;;;;;5050945;28;20063;-60
2022/08/15 03:34:17;;;;;;;10.40;6.10;;;15.80;99.90;;;;;;5051184;28;20054;-60
2022/08/15 03:36:46;;;;;;;7.28;5.93;;;15.80;99.90;;;;;;5035038;28;20113;-60
2022/08/15 03:39:20;;;;;;;8.88;5.78;;;15.80;99.90;;;;;;5051937;28;20106;-59
2022/08/15 03:41:47;;;;;;;5.57;5.05;;;15.80;99.90;;;;;;5046803;28;20056;-58
2022/08/15 03:44:24;;;;;;;5.25;4.75;;;15.70;99.90;;;;;;5030906;28;20157;-59
2022/08/15 03:46:55;;;;;;;6.20;5.60;;;15.80;99.90;;;;;;5031732;28;20057;-60
2022/08/15 03:49:25;;;;;;;8.27;5.18;;;15.70;99.90;;;;;;5032313;28;20140;-59
2022/08/15 03:52:11;;;;;;;7.07;6.00;;;15.70;99.90;;;;;;5031592;28;20487;-59
2022/08/15 03:54:41;;;;;;;8.30;6.25;;;15.70;99.90;;;;;;5032058;28;20056;-59
2022/08/15 03:57:17;;;;;;;6.80;5.00;;;15.70;99.90;;;;;;5048731;28;20072;-59
2022/08/15 03:59:44;;;;;;;10.77;6.53;;;15.70;99.90;;;;;;5052115;28;20040;-59
2022/08/15 04:02:12;;;;;;;13.52;6.07;;;15.70;99.90;;;;;;5052077;28;20678;-59
2022/08/15 04:04:56;;;;;;;14.23;6.50;;;15.70;99.90;;;;;;5051281;28;20060;-59
2022/08/15 04:07:26;;;;;;;10.45;7.38;;;15.70;99.90;;;;;;5052269;28;20541;-59
2022/08/15 04:10:13;;;;;;;8.30;6.53;;;15.70;99.90;;;;;;5051942;28;20467;-59
2022/08/15 04:13:01;;;;;;;12.20;6.82;;;15.70;99.90;;;;;;5079618;28;20045;-59
2022/08/15 04:15:28;;;;;;;8.57;6.20;;;15.70;99.90;;;;;;5050929;28;20063;-58
2022/08/15 04:17:58;;;;;;;9.18;6.53;;;15.70;99.90;;;;;;5052555;28;20127;-58
2022/08/15 04:20:45;;;;;;;8.07;6.90;;;15.70;99.90;;;;;;5052470;28;20498;-58
2022/08/15 04:23:17;;;;;;;6.70;5.97;;;15.70;99.90;;;;;;5051583;28;20044;-59
2022/08/15 04:25:49;;;;;;;7.53;5.70;;;15.70;99.90;;;;;;5052058;28;20522;-58
2022/08/15 04:28:24;;;;;;;11.43;7.65;;;15.70;99.90;;;;;;5055778;28;20110;-59
2022/08/15 04:31:18;;;;;;;11.77;6.97;;;15.80;99.90;;;;;;5054594;28;20131;-58
2022/08/15 04:33:47;;;;;;;7.20;5.90;;;15.70;99.90;;;;;;5055192;28;20738;-57
2022/08/15 04:36:36;;;;;;;9.07;5.78;;;15.80;99.90;;;;;;5040955;28;20040;-59
2022/08/15 04:39:04;;;;;;;8.23;5.55;;;15.70;99.90;;;;;;5055543;28;20064;-58
2022/08/15 04:41:39;;;;;;;6.85;5.07;;;15.70;99.90;;;;;;5054738;28;20059;-58
2022/08/15 04:44:18;;;;;;;5.47;4.97;;;15.70;99.90;;;;;;5049391;28;20267;-60
2022/08/15 04:46:51;;;;;;;6.00;5.28;;;15.80;99.90;;;;;;5034923;28;20055;-57
2022/08/15 04:49:18;;;;;;;8.98;4.82;;;15.70;99.90;;;;;;5034623;28;20041;-58
2022/08/15 04:51:49;;;;;;;6.90;6.05;;;15.80;99.90;;;;;;5035375;28;20049;-59
2022/08/15 04:54:16;;;;;;;7.25;5.57;;;15.80;99.90;;;;;;5034370;28;20172;-48
2022/08/15 04:56:53;;;;;;;7.43;5.15;;;15.70;99.90;;;;;;5046918;28;20047;-51
2022/08/15 04:59:25;;;;;;;6.80;5.40;;;15.70;99.90;;;;;;5054538;28;20530;-51
2022/08/15 05:02:10;;;;;;;7.25;5.82;;;15.80;99.90;;;;;;5055013;28;20128;-49
2022/08/15 05:04:58;;;;;;;7.20;5.40;;;15.70;99.90;;;;;;5055125;28;20206;-48
2022/08/15 05:07:25;;;;;;;8.05;5.85;;;15.70;99.90;;;;;;5056038;28;20701;-49
2022/08/15 05:09:55;;;;;;;6.43;5.80;;;15.70;99.90;;;;;;5054042;28;20079;-50
2022/08/15 05:12:35;;;;;;;7.90;6.13;;;15.70;99.90;;;;;;5054691;28;20053;-50
2022/08/15 05:15:03;;;;;;;7.10;5.75;;;15.70;99.90;;;;;;5053516;28;20044;-49
2022/08/15 05:17:34;;;;;;;9.98;5.88;;;15.70;99.90;;;;;;5055011;28;20807;-50
2022/08/15 05:20:21;;;;;;;6.83;5.60;;;15.70;99.90;;;;;;5053929;28;20116;-50
2022/08/15 05:23:02;;;;;;;5.93;5.30;;;15.70;99.90;;;;;;5054079;28;20071;-49
2022/08/15 05:25:43;;;;;;;5.00;4.30;;;15.70;99.90;;;;;;5039227;28;20694;-50
2022/08/15 05:28:12;;;;;;;10.52;5.18;;;15.70;99.90;;;;;;5037997;28;20067;-51
2022/08/15 05:31:05;;;;;;;6.63;4.75;;;15.70;99.90;;;;;;5054304;28;20056;-50
2022/08/15 05:33:44;;;;;;;6.05;4.82;;;15.80;99.90;;;;;;5053836;28;20465;-51
2022/08/15 05:36:34;;;;;;;8.93;5.50;;;15.80;99.90;;;;;;5054346;28;20049;-52
2022/08/15 05:39:19;;;;;;;6.70;4.93;;;15.90;99.90;;;;;;5038097;28;20052;-49
2022/08/15 05:41:56;;;;;;;8.32;5.90;;;16.00;99.90;;;;;;5054115;28;20052;-58
2022/08/15 05:44:40;;;;;;;8.02;5.80;;;16.00;99.90;;;;;;5048715;28;20459;-51
2022/08/15 05:47:33;;;;;;;6.00;5.20;;;16.10;99.90;;;;;;5034168;28;20458;-52
2022/08/15 05:50:17;;;;;;;8.52;5.13;;;16.20;99.90;;;;;;5033406;28;20059;-49
2022/08/15 05:52:56;;;;;;;8.10;6.05;;;16.20;99.90;;;;;;5034479;28;20052;-48
2022/08/15 05:55:38;;;;;;;7.88;5.78;;;16.30;99.90;;;;;;5033871;28;20052;-50
2022/08/15 05:58:16;;;;;;;8.52;5.75;;;16.50;99.90;;;;;;5053695;28;20311;-50
2022/08/15 06:01:09;;;;;;;7.60;5.72;;;16.50;99.90;;;;;;5054355;28;20495;-50
2022/08/15 06:04:11;;;;;;;12.20;5.47;;;16.60;99.90;;;;;;5053161;28;20090;-52
2022/08/15 06:06:58;;;;;;;9.80;4.93;;;16.80;99.90;;;;;;5053787;28;20052;-49
2022/08/15 06:09:34;;;;;;;8.20;4.95;;;16.90;99.90;;;;;;5055171;28;20098;-48
2022/08/15 06:12:25;;;;;;;5.80;5.18;;;17.10;99.90;;;;;;5054207;28;20090;-52
2022/08/15 06:15:37;;;;;;;7.60;4.47;;;17.20;99.90;;;;;;5053174;28;20245;-53
2022/08/15 06:18:09;;;;;;;8.70;5.10;;;17.30;99.90;;;;;;5045591;28;20052;-53
2022/08/15 06:21:01;;;;;;;8.75;4.82;;;17.40;99.90;;;;;;5053199;28;20037;-47
2022/08/15 06:23:35;;;;;;;7.50;4.75;;;17.50;99.90;;;;;;5053283;28;20044;-50
2022/08/15 06:26:45;;;;;;;7.85;4.88;;;17.60;99.90;;;;;;5053616;28;20049;-47
2022/08/15 06:29:34;;;;;;;9.32;4.85;;;17.70;99.90;;;;;;5053649;28;20048;-47
2022/08/15 06:32:12;;;;;;;7.30;4.35;;;17.70;99.90;;;;;;5053717;28;20055;-47
2022/08/15 06:35:28;;;;;;;9.95;4.32;;;17.80;99.90;;;;;;5052985;28;20048;-50
2022/08/15 06:38:39;;;;;;;6.93;4.60;;;17.80;99.90;;;;;;5053290;28;20048;-52
2022/08/15 06:41:26;;;;;;;8.45;4.28;;;18.00;99.90;;;;;;5052229;28;20049;-47
2022/08/15 06:44:03;;;;;;;6.32;3.97;;;18.10;99.90;;;;;;5052625;28;20046;-48
2022/08/15 06:46:39;;;;;;;13.70;5.22;;;18.20;99.90;;;;;;5041011;28;20068;-48
2022/08/15 06:49:20;;;;;;;6.70;3.60;;;18.30;99.90;;;;;;5017381;28;20150;-53
2022/08/15 06:51:51;;;;;;;4.32;3.58;;;18.40;99.90;;;;;;5032390;28;20045;-49
2022/08/15 06:54:23;;;;;;;7.35;3.75;;;18.50;99.90;;;;;;5032548;28;20051;-52
2022/08/15 06:57:21;;;;;;;6.32;3.20;;;18.60;99.90;;;;;;5045946;28;20048;-52
2022/08/15 07:00:19;;;;;;;6.03;3.40;;;18.70;99.90;;;;;;5053397;28;20056;-53
2022/08/15 07:03:42;;;;;;;6.70;2.67;;;18.70;99.90;;;;;;5051671;28;20249;-54
2022/08/15 07:06:28;;;;;;;6.20;3.33;;;18.80;99.90;;;;;;5052791;28;20052;-54
2022/08/15 07:09:01;;;;;;;9.95;2.53;;;18.70;99.90;;;;;;5052382;28;20052;-50
2022/08/15 07:11:37;;;;;;;2.83;2.15;;;18.80;99.90;;;;;;5052346;28;20586;-54
2022/08/15 07:14:30;;;;;;;6.55;2.60;;;18.80;99.90;;;;;;5053626;28;20098;-54
2022/08/15 07:17:12;;;;;;;4.28;2.08;;;18.90;99.90;;;;;;5052486;28;20121;-56
2022/08/15 07:19:44;;;;;;;2.65;1.85;;;19.00;99.90;;;;;;5052109;28;20510;-56
2022/08/15 07:22:35;;;;;;;4.35;2.40;;;19.10;99.90;;;;;;5054402;28;20078;-55
2022/08/15 07:25:13;;;;;;;4.22;1.98;;;19.20;99.90;;;;;;5051011;28;20548;-55
2022/08/15 07:27:58;;;;;;;3.75;2.35;;;19.20;99.90;;;;;;5052523;28;20072;-54
2022/08/15 07:30:35;;;;;;;2.58;2.03;;;19.30;99.90;;;;;;5036197;28;20123;-62
2022/08/15 07:33:04;;;;;;;3.10;2.20;;;19.40;99.90;;;;;;5052338;28;20488;-63
2022/08/15 07:35:33;;;;;;;5.18;2.25;;;19.40;99.90;;;;;;5051040;28;20051;-62
2022/08/15 07:38:07;;;;;;;1.98;1.77;;;19.50;99.90;;;;;;5050915;28;20049;-64
2022/08/15 07:41:15;;;;;;;2.88;2.13;;;19.60;99.90;;;;;;5051681;28;20095;-64
2022/08/15 07:43:44;;;;;;;2.85;1.83;;;19.60;99.90;;;;;;5054111;28;20128;-61
2022/08/15 07:46:34;;;;;;;2.30;1.90;;;19.70;99.90;;;;;;5047335;28;20056;-61
2022/08/15 07:49:07;;;;;;;3.70;2.47;;;19.70;99.90;;;;;;5036051;28;20939;-62
2022/08/15 07:51:41;;;;;;;4.13;1.80;;;19.90;99.90;;;;;;5031730;28;20140;-62
2022/08/15 07:54:28;;;;;;;1.90;1.60;;;20.00;99.90;;;;;;5031960;28;20045;-62
2022/08/15 07:57:06;;;;;;;3.35;2.28;;;20.20;99.90;;;;;;5045372;28;20125;-61
2022/08/15 07:59:39;;;;;;;4.03;1.87;;;20.40;99.90;;;;;;5052099;28;20140;-62
2022/08/15 08:03:04;;;;;;;2.65;1.30;;;21.10;99.90;;;;;;5056530;28;20709;-64
2022/08/15 08:05:49;;;;;;;;;;;21.90;99.90;;;;;;5040821;28;20194;-63
2022/08/15 08:08:26;;;;;;;4.80;1.73;;;22.40;98.70;;;;;;5055916;28;20563;-62
2022/08/15 08:11:44;;;;;;;3.00;1.88;;;22.90;99.90;;;;;;5055661;28;20053;-63
2022/08/15 08:14:29;;;;;;;1.73;1.45;;;23.40;94.40;;;;;;5044376;28;21051;-63
2022/08/15 08:17:36;;;;;;;3.45;1.95;;;23.70;91.30;;;;;;5056328;28;20734;-62
2022/08/15 08:20:23;;;;;;;5.65;2.10;;;23.90;91.50;;;;;;5055626;28;20522;-61
2022/08/15 08:23:02;;;;;;;2.50;1.92;;;24.20;96.40;;;;;;5041567;28;20048;-61
2022/08/15 08:25:55;;;;;;;3.40;2.15;;;24.50;92.80;;;;;;5055313;28;20064;-62
2022/08/15 08:29:12;;;;;;;4.32;2.17;;;24.80;83.50;;;;;;5056116;28;20057;-63
2022/08/15 08:31:59;;;;;;;2.67;2.28;;;25.00;83.50;;;;;;5055172;28;20051;-63
2022/08/15 08:35:04;;;;;;;4.60;2.63;;;25.10;81.60;;;;;;5056257;28;20984;-62
2022/08/15 08:37:57;;;;;;;3.30;2.78;;;24.80;82.40;;;;;;5057184;28;20106;-63
2022/08/15 08:43:24;;;;;;;5.68;2.30;;;24.80;82.70;;;;;;5055043;28;20083;-63
2022/08/15 08:45:59;;;;;;;7.13;3.00;;;24.90;86.80;;;;;;5055226;28;20059;-63
2022/08/15 08:48:44;;;;;;;4.95;2.40;;;25.00;85.90;;;;;;5050243;28;20509;-63
2022/08/15 08:51:34;;;;;;;7.93;2.47;;;25.20;84.20;;;;;;5055715;28;20132;-63
2022/08/15 08:54:07;;;;;;;4.43;2.95;;;25.30;81.00;;;;;;5056720;28;20658;-62
2022/08/15 08:56:45;;;;;;;6.20;2.42;;;25.40;76.50;;;;;;5056134;28;20053;-64
2022/08/15 08:59:29;;;;;;;6.10;2.60;;;25.50;78.70;;;;;;5056564;28;20115;-64
2022/08/15 09:02:23;;;;;;;5.82;3.70;;;25.60;76.30;;;;;;5056464;28;20048;-63
2022/08/15 09:05:07;;;;;;;5.22;2.22;;;25.70;74.60;;;;;;5055458;28;20063;-63
2022/08/15 09:07:39;;;;;;;6.22;2.83;;;25.70;72.90;;;;;;5057123;28;20433;-64
2022/08/15 09:10:08;;;;;;;2.92;2.05;;;25.80;71.90;;;;;;5055921;28;20127;-63
2022/08/15 09:15:30;;;;;;;2.78;2.05;;;25.60;71.70;;;;;;5055166;28;20048;-63
2022/08/15 09:18:24;;;;;;;3.08;2.22;;;25.60;72.60;;;;;;5056475;28;21079;-64
2022/08/15 09:20:53;;;;;;;6.57;2.40;;;25.70;68.20;;;;;;5053660;28;20080;-63
2022/08/15 09:23:23;;;;;;;8.00;2.30;;;25.70;63.00;;;;;;5055328;28;20055;-63
2022/08/15 09:26:05;;;;;;;4.20;2.38;;;25.70;62.90;;;;;;5056138;28;20526;-63
2022/08/15 09:28:54;;;;;;;3.67;2.10;;;25.70;61.80;;;;;;5060521;28;20116;-64
2022/08/15 09:31:27;;;;;;;5.53;2.85;;;25.70;64.20;;;;;;5055254;28;20106;-63
2022/08/15 09:34:44;;;;;;;11.25;2.90;;;25.90;63.10;;;;;;5055948;28;20044;-64
2022/08/15 09:37:31;;;;;;;6.03;2.90;;;26.20;59.60;;;;;;5038846;28;20044;-65
2022/08/15 09:40:17;;;;;;;;;;;26.20;60.40;;;;;;5055445;28;20141;-64
2022/08/15 09:43:31;;;;;;;4.97;1.92;;;26.10;58.40;;;;;;5053942;28;20449;-64
2022/08/15 09:46:14;;;;;;;3.42;1.98;;;26.00;58.20;;;;;;5055309;28;20550;-63
2022/08/15 09:49:17;;;;;;;4.10;2.10;;;26.00;58.50;;;;;;5039523;28;20107;-66
2022/08/15 09:51:50;;;;;;;5.75;2.25;;;26.10;58.30;;;;;;5035864;28;20702;-67
2022/08/15 09:54:23;;;;;;;2.58;1.90;;;26.00;58.20;;;;;;5046434;28;20118;-64
2022/08/15 09:57:39;;;;;;;4.82;2.33;;;26.00;57.50;;;;;;5049129;28;20510;-63
2022/08/15 10:00:17;;;;;;;4.97;1.83;;;26.10;57.10;;;;;;5054077;28;20052;-63
2022/08/15 10:02:51;;;;;;;6.60;2.08;;;26.30;59.00;;;;;;5054821;28;20040;-63
2022/08/15 10:05:27;;;;;;;2.55;2.08;;;26.60;57.70;;;;;;5053318;28;20159;-62
2022/08/15 10:08:06;;;;;;;7.22;2.15;;;26.80;54.70;;;;;;5055778;28;20052;-64
2022/08/15 10:10:36;;;;;;;4.22;2.15;;;26.80;55.20;;;;;;5054476;28;20068;-65
2022/08/15 10:13:11;;;;;;;3.45;2.30;;;26.70;55.40;;;;;;5044486;28;20048;-65
2022/08/15 10:15:46;;;;;;;5.53;2.10;;;26.80;55.20;;;;;;5033970;28;20049;-63
2022/08/15 10:18:51;;;;;;;6.50;2.30;;;27.00;56.90;;;;;;5049906;28;20041;-64
2022/08/15 10:21:30;;;;;;;3.38;2.08;;;27.10;55.60;;;;;;5052373;28;20151;-63
2022/08/15 10:23:57;;;;;;;6.18;2.30;;;27.30;54.40;;;;;;5053634;28;20036;-64
2022/08/15 10:26:31;;;;;;;3.20;1.90;;;27.40;53.30;;;;;;5054719;28;20041;-63
2022/08/15 10:29:27;;;;;;;4.38;2.40;;;27.50;53.90;;;;;;5054886;28;20049;-63
2022/08/15 10:31:59;;;;;;;5.65;2.78;;;27.70;52.50;;;;;;5052145;28;20053;-64
2022/08/15 10:35:24;;;;;;;4.38;2.72;;;27.80;51.90;;;;;;5054333;28;20060;-64
2022/08/15 10:37:56;;;;;;;4.75;1.80;;;28.00;52.00;;;;;;5053402;28;20115;-64
2022/08/15 10:40:48;;;;;;;7.53;2.53;;;28.10;55.30;;;;;;5054870;28;20041;-66
2022/08/15 10:43:48;;;;;;;1.70;1.60;;;28.20;51.70;;;;;;5052508;28;20051;-65
2022/08/15 10:46:37;;;;;;;5.80;2.58;;;28.20;50.50;;;;;;5054494;28;20124;-64
2022/08/15 10:49:41;;;;;;;3.10;2.25;;;28.00;50.80;;;;;;5044116;28;20037;-66
2022/08/15 10:52:26;;;;;;;3.72;2.25;;;28.00;51.40;;;;;;5034183;28;20135;-66
2022/08/15 10:55:29;;;;;;;3.95;2.10;;;28.20;52.00;;;;;;5032440;28;20466;-66
2022/08/15 10:58:32;;;;;;;3.25;2.13;;;28.40;52.70;;;;;;5034368;28;20041;-66
2022/08/15 11:01:09;;;;;;;24.48;2.58;;;28.90;52.30;;;;;;5032586;28;20542;-66
2022/08/15 11:04:06;;;;;;;8.18;2.25;;;29.20;49.70;;;;;;5034125;28;20049;-65
2022/08/15 11:06:53;;;;;;;5.95;1.83;;;29.40;50.30;;;;;;5033768;28;20041;-65
2022/08/15 11:09:24;;;;;;;3.60;2.13;;;29.60;50.00;;;;;;5034562;28;20056;-65
2022/08/15 11:12:00;;;;;;;3.08;1.80;;;29.70;48.50;;;;;;5047178;28;20051;-65
2022/08/15 11:14:33;;;;;;;4.40;2.20;;;29.90;48.50;;;;;;5053621;28;20055;-65
2022/08/15 11:17:03;;;;;;;2.35;1.52;;;30.00;49.60;;;;;;5052624;28;20040;-65
2022/08/15 11:19:42;;;;;;;5.88;1.90;;;30.10;48.40;;;;;;5053565;28;20044;-64
2022/08/15 11:22:46;;;;;;;2.45;1.73;;;30.30;47.90;;;;;;5053366;28;20690;-65
2022/08/15 11:25:19;;;;;;;3.70;1.95;;;30.60;47.30;;;;;;5054466;28;20040;-65
2022/08/15 11:27:59;;;;;;;4.22;1.75;;;30.80;45.90;;;;;;5053504;28;20044;-65
2022/08/15 11:30:28;;;;;;;2.85;2.08;;;30.90;46.90;;;;;;5054111;28;20663;-65
2022/08/15 11:33:21;;;;;;;6.75;1.92;;;31.00;47.90;;;;;;5021076;28;20053;-67
2022/08/15 11:36:04;;;;;;;7.53;2.40;;;30.90;47.00;;;;;;5056079;28;20052;-65
2022/08/15 11:38:35;;;;;;;3.88;2.00;;;30.90;46.70;;;;;;5058238;28;20059;-65
2022/08/15 11:41:04;;;;;;;6.88;2.20;;;30.80;45.40;;;;;;5058026;28;20123;-62
2022/08/15 11:43:32;;;;;;;2.72;1.80;;;30.60;45.80;;;;;;5057987;28;20575;-64
2022/08/15 11:46:00;;;;;;;5.45;2.05;;;30.30;46.20;;;;;;5057355;28;20059;-63
2022/08/15 11:48:52;;;;;;;1.77;1.55;;;30.10;44.90;;;;;;5057710;28;20048;-62
2022/08/15 11:51:26;;;;;;;5.25;2.05;;;29.80;46.30;;;;;;5041473;28;20052;-63
2022/08/15 11:54:06;;;;;;;3.95;1.88;;;29.80;48.00;;;;;;5057487;28;20122;-63
2022/08/15 11:56:51;;;;;;;3.42;2.03;;;29.90;45.90;;;;;;5054738;28;20048;-63
2022/08/15 11:59:31;;;;;;;3.78;1.60;;;29.70;44.60;;;;;;5036334;28;20049;-63
2022/08/15 12:02:29;;;;;;;3.03;2.22;;;29.50;45.70;;;;;;5035214;28;20052;-63
2022/08/15 12:05:16;;;;;;;6.28;2.22;;;29.40;45.30;;;;;;5057047;28;20072;-62
2022/08/15 12:08:04;;;;;;;2.83;1.85;;;29.20;48.10;;;;;;5055992;28;20073;-63
2022/08/15 12:11:14;;;;;;;1.95;1.73;;;28.90;47.80;;;;;;5056280;28;20559;-63
2022/08/15 12:14:00;;;;;;;2.70;1.77;;;28.60;48.00;;;;;;5056401;28;20893;-63
2022/08/15 12:16:46;;;;;;;3.30;1.50;;;28.30;47.50;;;;;;5055416;28;20675;-63
2022/08/15 12:19:37;;;;;;;4.43;1.70;;;28.30;46.80;;;;;;5057408;28;20682;-63
2022/08/15 12:22:32;;;;;;;2.55;1.70;;;28.50;47.80;;;;;;5057323;28;20212;-62
2022/08/15 12:25:19;;;;;;;4.15;2.20;;;28.70;48.50;;;;;;5055863;28;20040;-61
2022/08/15 12:28:06;;;;;;;3.85;2.10;;;28.80;51.70;;;;;;5057301;28;20130;-62
2022/08/15 12:31:11;;;;;;;2.78;2.58;;;28.60;53.20;;;;;;5041313;28;20053;-62
2022/08/15 12:33:44;;;;;;;5.22;2.53;;;28.30;53.70;;;;;;5033891;28;20049;-63
2022/08/15 12:36:19;;;;;;;8.57;2.67;;;27.90;55.10;;;;;;5035358;28;20052;-62
2022/08/15 12:39:07;;;;;;;3.63;2.20;;;27.70;54.90;;;;;;5034994;28;20083;-63
2022/08/15 12:41:38;;;;;;;2.70;1.98;;;27.50;55.80;;;;;;5035603;28;20045;-63
2022/08/15 12:44:28;;;;;;;5.47;2.97;;;27.60;56.30;;;;;;5035675;28;20264;-62
2022/08/15 12:46:56;;;;;;;6.18;2.20;;;27.70;56.30;;;;;;5034528;28;20044;-61
2022/08/15 12:49:24;;;;;;;3.65;2.10;;;27.90;54.10;;;;;;5051587;28;20736;-62
2022/08/15 12:51:51;;;;;;;1.92;1.65;;;27.90;51.90;;;;;;5042767;28;20471;-63
2022/08/15 12:54:18;;;;;;;2.40;2.20;;;27.80;52.50;;;;;;5034140;28;20049;-63
2022/08/15 12:56:53;;;;;;;6.88;2.50;;;27.80;54.40;;;;;;5047442;28;20049;-63
2022/08/15 12:59:37;;;;;;;3.83;2.60;;;27.60;55.50;;;;;;5054334;28;20346;-62
2022/08/15 13:02:05;;;;;;;4.45;2.28;;;27.50;55.90;;;;;;5052265;28;20315;-63
2022/08/15 13:04:33;;;;;;;4.22;2.70;;;27.40;56.70;;;;;;5055188;28;20306;-63
2022/08/15 13:07:21;;;;;;;7.43;3.33;;;27.30;57.70;;;;;;5056457;28;20147;-63
2022/08/15 13:09:59;;;;;;;5.20;3.35;;;27.20;57.40;;;;;;5027501;28;20143;-63
2022/08/15 13:12:45;;;;;;;6.18;2.42;;;27.10;59.50;;;;;;5056046;28;20040;-63
2022/08/15 13:15:12;;;;;;;2.88;2.33;;;27.20;58.70;;;;;;5054701;28;20471;-63
2022/08/15 13:17:40;;;;;;;6.90;2.78;;;27.20;58.60;;;;;;5056065;28;20074;-63
2022/08/15 13:26:20;;;;;;;3.80;2.50;;;26.90;59.00;;;;;;5055015;28;20101;-63
2022/08/15 13:28:59;;;;;;;3.10;2.50;;;26.80;60.00;;;;;;5053502;28;20052;-63
2022/08/15 13:31:26;;;;;;;4.75;2.80;;;26.60;58.60;;;;;;5054538;28;20062;-62
2022/08/15 13:33:53;;;;;;;2.80;2.47;;;26.50;58.90;;;;;;5052763;28;20218;-63
2022/08/15 13:36:24;;;;;;;4.63;3.30;;;26.30;59.60;;;;;;5053197;28;20732;-62
2022/08/15 13:38:56;;;;;;;3.25;2.53;;;26.20;58.40;;;;;;5054781;28;20156;-63
2022/08/15 13:41:26;;;;;;;3.60;2.47;;;26.00;59.70;;;;;;5054956;28;20052;-63
2022/08/15 13:44:15;;;;;;;5.43;2.80;;;25.80;58.70;;;;;;5035473;28;20503;-64
2022/08/15 13:46:58;;;;;;;5.75;2.05;;;25.60;59.50;;;;;;5034649;28;20049;-63
2022/08/15 13:49:29;;;;;;;5.40;2.72;;;25.40;60.50;;;;;;5035278;28;20048;-63
2022/08/15 13:51:58;;;;;;;5.45;2.50;;;25.20;62.80;;;;;;5039008;28;20158;-63
2022/08/15 13:54:45;;;;;;;3.17;2.88;;;25.10;64.10;;;;;;5036981;28;20343;-63
2022/08/15 13:57:19;;;;;;;4.05;2.55;;;24.90;65.10;;;;;;5050267;28;20068;-63
2022/08/15 13:59:53;;;;;;;5.30;2.92;;;24.80;67.90;;;;;;5052946;28;20055;-63
2022/08/15 14:02:24;;;;;;;5.00;3.08;;;24.60;69.00;;;;;;5055298;28;20382;-63
2022/08/15 14:05:05;;;;;;;4.10;3.15;;;24.40;70.40;;;;;;5055448;28;20059;-63
2022/08/15 14:07:33;;;;;;;4.13;2.67;;;24.30;73.90;;;;;;5055583;28;20062;-63